AirNav   ATP
 
 1087 users online  

KIUA
(formerly D38)
Canandaigua Airport
Canandaigua, New York, USA

GOING TO CANANDAIGUA?


FAA INFORMATION EFFECTIVE 19 JULY 2018

Location

FAA Identifier: IUA
Lat/Long: 42-54-32.0468N / 077-19-30.8146W
42-54.534113N / 077-19.513577W
42.9089019 / -77.3252263
(estimated)
Elevation: 813.6 ft. / 248.0 m (surveyed)
Variation: 12W (2000)
From city: 3 miles NW of CANANDAIGUA, NY
Time zone: UTC -4 (UTC -5 during Standard Time)
Zip code: 14424

Airport Operations

Airport use: Open to the public
Activation date: 04/1948
Control tower: no
ARTCC: CLEVELAND CENTER
FSS: BUFFALO FLIGHT SERVICE STATION
NOTAMs facility: BUF (NOTAM-D service available)
Attendance: CONTINUOUS
7:00AM-5:00 P.M. DAILY, CALL FBO FOR AFTER HOURS SERVICE
Wind indicator: lighted
Segmented circle: yes
Lights: ACTIVATE MIRL RWY 13/31 - CTAF.
Beacon: white-green (lighted land airport)
Operates sunset to sunrise.

Airport Communications

CTAF/UNICOM: 122.8
WX AWOS-3P: 118.675 (585-396-5861)
ROCHESTER APPROACH: 119.55
ROCHESTER DEPARTURE: 119.55
WX ASOS at ROC (20 nm NW): 124.825 (585-235-7322)
  • CD THRU FLT SVCS 1-888-766-8267.

Nearby radio navigation aids

VOR radial/distance  VOR name  Freq  Var
GEEr085/18.5GENESEO VOR/DME108.2009W
ROCr141/19.7ROCHESTER VOR/DME110.0012W

 
NDB name  Hdg/Dist  Freq  Var  ID
PENN YAN335/19.826012WPYA .--. -.-- .-

Airport Services

Fuel available: 100LL JET-A+
Parking: hangars and tiedowns
Airframe service: MAJOR
Powerplant service: MAJOR
Bottled oxygen: NONE
Bulk oxygen: NONE

Runway Information

Runway 13/31

Dimensions: 5500 x 100 ft. / 1676 x 30 m
Surface: asphalt/grooved, in good condition
Runway edge lights: medium intensity
RUNWAY 13  RUNWAY 31
Latitude: 42-54.780987N42-54.287240N
Longitude: 077-20.029750W077-18.997403W
Elevation: 788.6 ft.811.9 ft.
Traffic pattern: leftleft
Runway heading: 135 magnetic, 123 true315 magnetic, 303 true
Markings: nonprecision, in good conditionnonprecision, in good condition
Visual slope indicator: 2-light PAPI on left (3.00 degrees glide path)2-light PAPI on left (3.00 degrees glide path)
Runway end identifier lights: yesyes
Touchdown point: yes, no lightsyes, no lights
Obstructions: 7 ft. fence, 353 ft. from runway, 8 ft. right of centerline, 21:1 slope to clear38 ft. tree, 1069 ft. from runway, 131 ft. right of centerline, 22:1 slope to clear
9 FT BUSH/FENCE 176 FT FM THRESHOLD 243 FT 'L'.

Airport Ownership and Management from official FAA records

Ownership: Publicly-owned
Owner: ONTARIO COUNTY IDA
20 ONTARIO ST
CANANDAIGUA, NY 14425
Phone 585-396-4460
Manager: JIM DOLAN
2525 SR 332, BOX 6, STE 101
CANANDAIGUA, NY 14424
Phone 315-243-7428

Airport Operational Statistics

Aircraft based on the field: 57
Single engine airplanes: 52
Multi engine airplanes: 2
Ultralights: 3
    
Aircraft operations: avg 59/day *
48% transient general aviation
48% local general aviation
5% air taxi
* for 12-month period ending 28 July 2017

Additional Remarks

FOR SVCS AND ARPT CONDITIONS CALL 585-394-4780.
FREQUENT MEDIVAC HELICOPTER OPERATIONS MONITOR CTAF.

Instrument Procedures

NOTE: All procedures below are presented as PDF files. If you need a reader for these files, you should download the free Adobe Reader.

NOT FOR NAVIGATION. Please procure official charts for flight.
FAA instrument procedures published for use from 19 July 2018 at 0901Z to 16 August 2018 at 0900Z.

 
IAPs - Instrument Approach Procedures
RNAV (GPS) RWY 13 **CHANGED**   download (242KB)
RNAV (GPS) RWY 31 **CHANGED**   download (244KB)
VOR-A **CHANGED**   download (182KB)
NOTE: Special Take-Off Minimums/Departure Procedures apply   download (291KB)

Other nearby airports with instrument procedures:

KROC - Greater Rochester International Airport (20 nm NW)
KPEO - Penn Yan Airport (20 nm SE)
KSDC - Williamson-Sodus Airport (22 nm NE)
0G7 - Finger Lakes Regional Airport (24 nm E)
KDSV - Dansville Municipal Airport (27 nm SW)
 
Loc | Ops | Rwys | IFR | FBO | Links
Com | Nav | Svcs | Stats | Notes


 
Area around KIUA (Canandaigua Airport)
 
Road maps at: MapQuest Bing Google
 
Aerial photo
WARNING: Photo may not be current or correct
Aerial photo of KIUA (Canandaigua Airport)
Photo by Bob Dunbar
Photo taken 18-Apr-2015
looking northwest.

Do you have a better or more recent aerial photo of Canandaigua Airport that you would like to share? If so, please send us your photo.

 
Sectional chart

 
Airport distance calculator
Flying to Canandaigua Airport? Find the distance to fly.

From to KIUA

Sunrise and sunset
Times for 14-Aug-2018
 Local
(UTC-4)
 Zulu
(UTC)
Morning civil twilight05:4409:44
Sunrise06:1510:15
Sunset20:1300:13
Evening civil twilight20:4300:43

Current date and time
Zulu (UTC)  15-Aug-2018 00:19:29
Local (UTC-4)  14-Aug-2018 20:19:29
 
METAR
KPEO 
20nm SE 
142353Z AUTO VRB06KT 10SM OVC080 22/19 A2987 RMK AO2 SLP110 60004 T02220189 10233 20200 53003
KROC 
20nm NW 
142354Z 25007KT 10SM SCT090 BKN130 BKN180 24/20 A2986 RMK AO2 SLP111 60006 T02440200 10256 20222 55000 $
KSDC 
22nm NE 
142355Z AUTO 00000KT 10SM SCT055 SCT080 21/18 A2985 RMK AO2
KDSV 
27nm SW 
142354Z AUTO 00000KT 10SM CLR 23/21 A2989 RMK AO2 SLP125 60004 T02280206 10256 20211 53002
KGVQ 
38nm W 
142356Z AUTO 26010KT 10SM CLR 24/18 A2989 RMK AO2 SLP136 6//// T02390178 10256 20222 51000 PNO $
K6B9 
39nm E 
142355Z AUTO 28006KT 5SM BR BKN036 BKN043 OVC055 21/20 A2986 RMK AO2
TAF
KROC 
20nm NW 
142109Z 1421/1518 30008KT P6SM SCT040 BKN080 TEMPO 1422/1423 -SHRA FM150000 27008KT P6SM FEW040 SCT080 BKN200 FM150400 26006KT P6SM FEW050 SCT250 FM151600 28012G18KT P6SM SCT060
NOTAMs
Click for the latest NOTAMs
NOTAMs are issued by the DoD/FAA and will open in a separate window not controlled by AirNav.

 

 
 

FBO, Fuel Providers, and Aircraft Ground Support

  
 Business Name 
 
 Contact 
 
 Services / Description 
 
Fuel Prices
 
Comments
  
MFC Aviation Services 585-394-4780
585-396-0584
[email]
Aviation fuel, Aircraft ground handling, Oxygen service, Aircraft parking (ramp or tiedown), Hangars, Hangar leasing / sales, GPU / Power cart, ...

More info about MFC Aviation Services
Phillips 66
100LL Jet A
FS --- $4.48 
SS $5.14 --- 
 Updated 13-Aug-2018
 
   2 read write
FS=Full service
SS=Self service
Update Fuel Prices
 

Would you like to see your business listed on this page?

 If your business provides an interesting product or service to pilots, flight crews, aircraft, or users of the Canandaigua Airport, you should consider listing it here.  To start the listing process, click on the button below
 
Add a business
 

Other Pages about Canandaigua Airport

www.canandaiguaairport.com
 
Update a link
 
Copyright © AirNav, LLC. All rights reserved. Privacy Policy  Contact